createdAt,value
2022-09-20T00:04:43.641Z,101711.03
2022-09-20T00:09:44.888Z,101733.56
2022-09-20T00:14:46.193Z,101733.56
2022-09-20T00:19:47.533Z,101731.84
2022-09-20T00:24:49.216Z,101736.97
2022-09-20T00:29:50.607Z,101726.41
2022-09-20T00:35:10.621Z,101740.31
2022-09-20T00:40:20.494Z,101743.72
2022-09-20T00:45:24.156Z,101741.94
2022-09-20T00:50:44.543Z,101738.31
2022-09-20T00:56:00.902Z,101729.69
2022-09-20T01:01:05.496Z,101742.63
2022-09-20T01:06:09.808Z,101739.16
2022-09-20T01:11:11.356Z,101737.28
2022-09-20T01:16:14.970Z,101737.22
2022-09-20T01:21:18.393Z,101731.16
2022-09-20T01:26:31.530Z,101743.97
2022-09-20T01:31:36.303Z,101736.19
2022-09-20T01:36:52.217Z,101731.59
2022-09-20T01:41:58.621Z,101748.00
2022-09-20T01:47:10.514Z,101751.19
2022-09-20T01:52:30.677Z,101741.69
2022-09-20T01:57:53.356Z,101739.03
2022-09-20T02:03:29.445Z,101735.56
2022-09-20T02:09:12.699Z,101736.81
2022-09-20T02:15:09.997Z,101678.97
2022-09-20T02:20:44.717Z,101662.41
2022-09-20T02:26:14.105Z,101736.38
2022-09-20T02:31:21.446Z,101730.31
2022-09-20T02:36:47.126Z,101727.72
2022-09-20T02:42:15.996Z,101716.34
2022-09-20T02:47:34.016Z,101725.84
2022-09-20T02:53:13.521Z,101728.38
2022-09-20T02:58:40.815Z,101729.19
2022-09-20T03:04:38.696Z,101740.38
2022-09-20T03:10:12.632Z,101718.69
2022-09-20T03:15:30.672Z,101739.59
2022-09-20T03:20:46.173Z,101735.22
2022-09-20T03:25:57.072Z,101730.97
2022-09-20T03:31:15.079Z,101734.44
2022-09-20T03:36:32.889Z,101717.28
2022-09-20T03:41:58.393Z,101721.66
2022-09-20T03:47:37.392Z,101731.84
2022-09-20T03:52:51.796Z,101724.75
2022-09-20T03:58:11.016Z,101728.38
2022-09-20T04:03:32.569Z,101733.63
2022-09-20T04:08:48.469Z,101718.97
2022-09-20T04:14:16.728Z,101735.66
2022-09-20T04:19:29.654Z,101720.97
2022-09-20T04:24:48.264Z,101737.56
2022-09-20T04:30:05.290Z,101716.00
2022-09-20T04:35:44.184Z,101732.63
2022-09-20T04:41:37.754Z,101727.50
2022-09-20T04:46:55.860Z,101736.16
2022-09-20T04:52:26.911Z,101738.72
2022-09-20T04:58:07.635Z,101738.78
2022-09-20T05:03:32.009Z,101745.72
2022-09-20T05:08:46.613Z,101761.25
2022-09-20T05:13:50.966Z,101759.56
2022-09-20T05:19:15.392Z,101776.03
2022-09-20T05:24:53.948Z,101775.22
2022-09-20T05:30:04.438Z,101762.91
2022-09-20T05:35:12.887Z,101772.69
2022-09-20T05:40:29.234Z,101775.22
2022-09-20T05:46:14.797Z,101787.28
2022-09-20T05:51:51.668Z,101781.22
2022-09-20T05:57:20.925Z,101783.88
2022-09-20T06:02:37.792Z,101779.56
2022-09-20T06:07:57.413Z,101788.41
2022-09-20T06:13:13.742Z,101791.78
2022-09-20T06:18:40.455Z,101794.47
2022-09-20T06:23:42.188Z,101798.97
2022-09-20T06:28:49.952Z,101798.19
2022-09-20T06:33:55.051Z,101811.25
2022-09-20T06:39:18.112Z,101809.59
2022-09-20T06:44:19.505Z,101814.88
2022-09-20T06:49:21.119Z,101819.28
2022-09-20T06:54:23.158Z,101808.09
2022-09-20T06:59:24.545Z,101808.19
2022-09-20T07:04:26.860Z,101796.00
2022-09-20T07:09:29.264Z,101826.41
2022-09-20T07:14:30.992Z,101800.31
2022-09-20T07:19:32.380Z,101828.25
2022-09-20T07:24:33.629Z,101817.06
2022-09-20T07:29:35.345Z,101811.00
2022-09-20T07:34:36.646Z,101816.25
2022-09-20T07:39:38.216Z,101815.53
2022-09-20T07:44:42.168Z,101807.66
2022-09-20T07:49:43.509Z,101821.72
2022-09-20T07:54:45.880Z,101842.50
2022-09-20T07:59:47.189Z,101840.84
2022-09-20T08:04:49.863Z,101851.31
2022-09-20T08:09:51.202Z,101860.94
2022-09-20T08:14:52.549Z,101856.72
2022-09-20T08:19:53.870Z,101862.03
2022-09-20T08:24:55.103Z,101835.09
2022-09-20T08:29:57.436Z,101848.16
2022-09-20T08:34:59.033Z,101869.06
2022-09-20T08:40:00.563Z,101866.53
2022-09-20T08:45:07.062Z,101866.63
2022-09-20T08:50:17.733Z,101869.22
2022-09-20T08:55:27.981Z,101880.56
2022-09-20T09:00:33.356Z,101872.78
2022-09-20T09:05:47.878Z,101881.56
2022-09-20T09:10:54.610Z,101874.63
2022-09-20T09:15:59.794Z,101873.81
2022-09-20T09:21:04.791Z,101882.53
2022-09-20T09:26:15.881Z,101883.44
2022-09-20T09:31:25.825Z,101877.38
2022-09-20T09:36:27.397Z,101860.03
2022-09-20T09:41:33.359Z,101867.88
2022-09-20T09:46:36.352Z,101861.81
2022-09-20T09:51:38.584Z,101871.34
2022-09-20T09:56:52.327Z,101856.56
2022-09-20T10:02:06.597Z,101885.19
2022-09-20T10:07:35.928Z,101883.41
2022-09-20T10:13:04.073Z,101879.97
2022-09-20T10:18:16.277Z,101874.81
2022-09-20T10:23:51.869Z,101883.50
2022-09-20T10:29:00.986Z,101881.81
2022-09-20T10:34:24.073Z,101874.88
2022-09-20T10:39:35.338Z,101864.50
2022-09-20T10:45:11.863Z,101871.44
2022-09-20T10:50:43.465Z,101875.78
2022-09-20T10:56:13.045Z,101875.81
2022-09-20T11:01:29.845Z,101867.13
2022-09-20T11:06:51.489Z,101870.59
2022-09-20T11:12:01.088Z,101873.22
2022-09-20T11:17:16.648Z,101876.66
2022-09-20T11:22:29.498Z,101877.53
2022-09-20T11:27:38.249Z,101877.53
2022-09-20T11:32:46.381Z,101868.00
2022-09-20T11:37:57.222Z,101887.91
2022-09-20T11:43:06.043Z,101881.00
2022-09-20T11:48:19.903Z,101880.09
2022-09-20T11:53:49.312Z,101880.97
2022-09-20T11:58:55.122Z,101886.16
2022-09-20T12:04:27.894Z,101892.25
2022-09-20T12:09:35.154Z,101887.88
2022-09-20T12:14:36.617Z,101878.25
2022-09-20T12:19:38.730Z,101867.88
2022-09-20T12:24:45.193Z,101874.81
2022-09-20T12:29:50.097Z,101875.69
2022-09-20T12:34:52.444Z,101885.22
2022-09-20T12:39:55.551Z,101874.69
2022-09-20T12:45:04.630Z,101879.03
2022-09-20T12:50:34.138Z,101873.94
2022-09-20T12:55:45.640Z,101864.31
2022-09-20T13:00:51.792Z,101868.66
2022-09-20T13:06:05.918Z,101862.59
2022-09-20T13:11:07.217Z,101859.13
2022-09-20T13:16:22.260Z,101857.34
2022-09-20T13:21:24.011Z,101863.34
2022-09-20T13:26:40.827Z,101862.44
2022-09-20T13:31:43.069Z,101858.13
2022-09-20T13:36:45.943Z,101861.69
2022-09-20T13:41:48.433Z,101847.81
2022-09-20T13:46:49.782Z,101854.81
2022-09-20T13:51:51.987Z,101871.28
2022-09-20T13:56:56.190Z,101874.81
2022-09-20T14:01:57.679Z,101873.13
2022-09-20T14:07:00.612Z,101877.47
2022-09-20T14:12:04.596Z,101874.91
2022-09-20T14:17:09.425Z,101878.34
2022-09-20T14:22:26.703Z,101851.44
2022-09-20T14:27:31.008Z,101882.72
2022-09-20T14:33:02.065Z,101878.38
2022-09-20T14:38:10.133Z,101867.06
2022-09-20T14:43:32.599Z,101875.78
2022-09-20T14:48:36.780Z,101878.34
2022-09-20T14:53:38.324Z,101857.53
2022-09-20T14:59:17.020Z,101873.13
2022-09-20T15:04:21.709Z,101882.66
2022-09-20T15:09:23.207Z,101873.09
2022-09-20T15:14:24.529Z,101859.22
2022-09-20T15:19:26.088Z,101873.06
2022-09-20T15:24:27.500Z,101873.91
2022-09-20T15:29:29.100Z,101856.56
2022-09-20T15:34:30.926Z,101859.16
2022-09-20T15:39:32.410Z,101869.59
2022-09-20T15:44:33.938Z,101873.09
2022-09-20T15:49:35.538Z,101876.59
2022-09-20T15:54:36.885Z,101874.00
2022-09-20T15:59:38.228Z,101881.84
2022-09-20T16:04:39.647Z,101887.91
2022-09-20T16:09:40.965Z,101851.47
2022-09-20T16:14:42.376Z,101894.03
2022-09-20T16:19:46.056Z,101895.75
2022-09-20T16:24:47.396Z,101894.03
2022-09-20T16:29:48.641Z,101900.09
2022-09-20T16:34:51.009Z,101903.59
2022-09-20T16:39:52.356Z,101891.44
2022-09-20T16:44:53.643Z,101903.56
2022-09-20T16:49:56.222Z,101903.56
2022-09-20T16:54:57.589Z,101898.38
2022-09-20T16:59:59.586Z,101911.38
2022-09-20T17:05:00.935Z,101906.19
2022-09-20T17:10:02.564Z,101908.78
2022-09-20T17:15:03.968Z,101909.66
2022-09-20T17:20:07.689Z,101907.03
2022-09-20T17:25:09.304Z,101916.59
2022-09-20T17:30:10.933Z,101923.50
2022-09-20T17:35:12.263Z,101936.50
2022-09-20T17:40:13.532Z,101935.59
2022-09-20T17:45:16.164Z,101938.22
2022-09-20T17:50:17.565Z,101953.81
2022-09-20T17:55:18.933Z,101962.38
2022-09-20T18:00:20.301Z,101961.50
2022-09-20T18:05:21.637Z,101967.44
2022-09-20T18:10:28.684Z,101960.50
2022-09-20T18:15:31.859Z,101955.03
2022-09-20T18:20:33.949Z,101982.69
2022-09-20T18:25:55.262Z,101971.50
2022-09-20T18:31:04.358Z,101985.94
2022-09-20T18:36:06.054Z,101977.38
2022-09-20T18:41:07.460Z,101987.38
2022-09-20T18:46:10.727Z,101990.19
2022-09-20T18:51:12.032Z,101992.56
2022-09-20T18:56:28.788Z,101997.69
2022-09-20T19:01:48.747Z,102006.25
2022-09-20T19:07:05.171Z,102006.31
2022-09-20T19:12:17.612Z,102006.88
2022-09-20T19:17:25.422Z,101998.88
2022-09-20T19:22:50.644Z,101976.09
2022-09-20T19:27:52.694Z,102013.50
2022-09-20T19:32:54.224Z,102020.91
2022-09-20T19:38:01.065Z,102020.94
2022-09-20T19:43:45.422Z,102027.75
2022-09-20T19:48:56.779Z,102036.13
2022-09-20T19:53:58.498Z,102038.78
2022-09-20T19:59:00.139Z,102040.56
2022-09-20T20:04:03.638Z,102043.03
2022-09-20T20:09:27.132Z,102041.03
2022-09-20T20:14:28.444Z,102051.97
2022-09-20T20:19:46.546Z,102058.91
2022-09-20T20:24:47.878Z,102065.13
2022-09-20T20:29:49.584Z,102059.50
2022-09-20T20:34:51.181Z,102082.66
2022-09-20T20:39:53.479Z,102087.63
2022-09-20T20:44:54.810Z,102068.34
2022-09-20T20:49:56.120Z,102076.94
2022-09-20T20:54:59.907Z,102092.09
2022-09-20T21:00:01.480Z,102104.25
2022-09-20T21:05:02.907Z,102098.63
2022-09-20T21:10:04.365Z,102107.28
2022-09-20T21:15:06.069Z,102112.97
2022-09-20T21:20:08.320Z,102114.91
2022-09-20T21:25:09.897Z,102119.47
2022-09-20T21:30:11.761Z,102118.53
2022-09-20T21:35:13.077Z,102117.78
2022-09-20T21:40:14.497Z,102125.94
2022-09-20T21:45:20.616Z,102121.72
2022-09-20T21:50:22.365Z,102108.13
2022-09-20T21:55:23.690Z,102119.94
2022-09-20T22:00:26.201Z,102125.13
2022-09-20T22:05:27.793Z,102120.84
2022-09-20T22:10:29.247Z,102117.50
2022-09-20T22:15:30.532Z,102142.34
2022-09-20T22:20:31.891Z,102134.06
2022-09-20T22:25:34.144Z,102132.19
2022-09-20T22:30:35.570Z,102131.91
2022-09-20T22:35:43.384Z,102114.16
2022-09-20T22:40:55.243Z,102112.16
2022-09-20T22:46:06.047Z,102123.44
2022-09-20T22:51:10.439Z,102127.06
2022-09-20T22:56:17.041Z,102126.34
2022-09-20T23:01:21.753Z,102126.34
2022-09-20T23:06:32.117Z,102140.63
2022-09-20T23:11:34.603Z,102137.44
2022-09-20T23:16:37.834Z,102137.81
2022-09-20T23:21:40.477Z,102145.06
2022-09-20T23:26:43.179Z,102117.97
2022-09-20T23:31:47.085Z,102122.75
2022-09-20T23:36:48.732Z,102122.91
2022-09-20T23:41:51.230Z,102136.69
2022-09-20T23:46:52.834Z,102133.16
2022-09-20T23:51:54.236Z,102131.97
2022-09-20T23:56:55.548Z,102131.63
